createdAt,value
2018-07-04T00:00:03.725Z,0.00
2018-07-04T00:01:03.578Z,0.00
2018-07-04T00:02:04.140Z,0.00
2018-07-04T00:03:03.547Z,0.00
2018-07-04T00:04:05.455Z,0.00
2018-07-04T00:05:04.051Z,0.00
2018-07-04T00:06:03.510Z,0.00
2018-07-04T00:07:03.474Z,0.00
2018-07-04T00:08:03.429Z,0.00
2018-07-04T00:09:03.385Z,0.00
2018-07-04T00:10:03.425Z,0.00
2018-07-04T00:11:03.522Z,0.00
2018-07-04T00:12:03.563Z,0.00
2018-07-04T00:13:04.996Z,0.00
2018-07-04T00:14:03.292Z,0.00
2018-07-04T00:15:03.755Z,0.00
2018-07-04T00:16:03.263Z,0.00
2018-07-04T00:17:03.128Z,0.00
2018-07-04T00:18:03.114Z,0.00
2018-07-04T00:19:03.124Z,0.00
2018-07-04T00:20:03.154Z,0.00
2018-07-04T00:21:03.947Z,0.00
2018-07-04T00:22:03.070Z,0.00
2018-07-04T00:23:02.976Z,0.00
2018-07-04T00:24:05.101Z,0.00
2018-07-04T00:25:03.543Z,0.00
2018-07-04T00:26:05.013Z,0.00
2018-07-04T00:27:03.510Z,0.00
2018-07-04T00:28:04.510Z,0.00
2018-07-04T00:29:02.931Z,0.00
2018-07-04T00:30:02.905Z,0.00
2018-07-04T00:31:02.883Z,0.00
2018-07-04T00:32:05.437Z,0.00
2018-07-04T00:33:02.790Z,0.00
2018-07-04T00:34:05.500Z,0.00
2018-07-04T00:35:02.741Z,0.00
2018-07-04T00:36:03.144Z,0.00
2018-07-04T00:37:04.611Z,0.00
2018-07-04T00:38:04.578Z,0.00
2018-07-04T00:39:03.558Z,0.00
2018-07-04T00:40:04.479Z,0.00
2018-07-04T00:41:04.507Z,0.00
2018-07-04T00:42:02.523Z,0.00
2018-07-04T00:43:04.008Z,0.00
2018-07-04T00:44:02.958Z,0.00
2018-07-04T00:45:02.412Z,0.00
2018-07-04T00:46:02.407Z,0.00
2018-07-04T00:47:02.285Z,0.00
2018-07-04T00:48:03.996Z,0.00
2018-07-04T00:49:02.753Z,0.00
2018-07-04T00:50:02.270Z,0.00
2018-07-04T00:51:03.480Z,0.00
2018-07-04T00:52:02.316Z,0.00
2018-07-04T00:53:02.200Z,0.00
2018-07-04T00:54:02.237Z,0.00
2018-07-04T00:55:02.179Z,0.00
2018-07-04T00:56:02.886Z,0.00
2018-07-04T00:57:02.010Z,0.00
2018-07-04T00:58:05.433Z,0.00
2018-07-04T00:59:02.084Z,0.00
2018-07-04T01:00:03.056Z,0.00
2018-07-04T01:01:02.016Z,0.00
2018-07-04T01:02:01.996Z,0.00
2018-07-04T01:03:02.427Z,0.00
2018-07-04T01:04:01.971Z,0.00
2018-07-04T01:05:01.903Z,0.00
2018-07-04T01:06:01.904Z,0.00
2018-07-04T01:07:01.812Z,0.00
2018-07-04T01:08:01.856Z,0.00
2018-07-04T01:09:01.783Z,0.00
2018-07-04T01:10:01.803Z,0.00
2018-07-04T01:11:05.054Z,0.00
2018-07-04T01:12:01.743Z,0.00
2018-07-04T01:13:02.570Z,0.00
2018-07-04T01:14:01.549Z,0.00
2018-07-04T01:15:01.661Z,0.00
2018-07-04T01:16:01.674Z,0.00
2018-07-04T01:17:01.876Z,0.00
2018-07-04T01:18:01.568Z,0.00
2018-07-04T01:19:01.393Z,0.00
2018-07-04T01:20:01.494Z,0.00
2018-07-04T01:21:01.488Z,0.00
2018-07-04T01:22:01.492Z,0.00
2018-07-04T01:23:01.383Z,0.00
2018-07-04T01:24:01.397Z,0.00
2018-07-04T01:25:01.322Z,0.00
2018-07-04T01:26:01.373Z,0.00
2018-07-04T01:27:04.041Z,0.00
2018-07-04T01:28:01.850Z,0.00
2018-07-04T01:29:01.328Z,0.00
2018-07-04T01:30:03.017Z,0.00
2018-07-04T01:31:01.499Z,0.00
2018-07-04T01:32:01.191Z,0.00
2018-07-04T01:33:01.105Z,0.00
2018-07-04T01:34:03.009Z,0.00
2018-07-04T01:35:01.117Z,0.00
2018-07-04T01:36:01.917Z,0.00
2018-07-04T01:37:01.382Z,0.00
2018-07-04T01:38:01.025Z,0.00
2018-07-04T01:39:00.916Z,0.00
2018-07-04T01:40:00.891Z,0.00
2018-07-04T01:41:03.057Z,0.00
2018-07-04T01:42:00.946Z,0.00
2018-07-04T01:43:00.853Z,0.00
2018-07-04T01:44:03.058Z,0.00
2018-07-04T01:45:00.861Z,0.00
2018-07-04T01:46:01.495Z,0.00
2018-07-04T01:47:00.725Z,0.00
2018-07-04T01:48:00.796Z,4.00
2018-07-04T01:49:00.754Z,4.00
2018-07-04T01:50:00.713Z,4.00
2018-07-04T01:51:00.677Z,4.00
2018-07-04T01:52:00.664Z,0.00
2018-07-04T01:53:01.080Z,0.00
2018-07-04T01:54:03.591Z,4.00
2018-07-04T01:55:01.046Z,4.00
2018-07-04T01:56:00.457Z,4.00
2018-07-04T01:57:00.494Z,4.00
2018-07-04T01:58:00.518Z,4.00
2018-07-04T01:59:05.965Z,4.00
2018-07-04T02:00:00.426Z,8.00
2018-07-04T02:01:00.379Z,4.00
2018-07-04T02:02:02.305Z,8.00
2018-07-04T02:05:41.692Z,8.00
2018-07-04T02:06:40.035Z,12.00
2018-07-04T02:07:40.399Z,12.00
2018-07-04T02:08:39.861Z,12.00
2018-07-04T02:09:40.437Z,12.00
2018-07-04T02:10:43.941Z,16.00
2018-07-04T02:11:39.755Z,12.00
2018-07-04T02:12:40.450Z,16.00
2018-07-04T02:13:39.707Z,20.00
2018-07-04T02:14:39.731Z,20.00
2018-07-04T02:15:39.646Z,24.00
2018-07-04T02:16:41.328Z,24.00
2018-07-04T02:17:39.615Z,24.00
2018-07-04T02:18:40.030Z,28.00
2018-07-04T02:19:39.666Z,32.00
2018-07-04T02:20:40.027Z,40.00
2018-07-04T02:21:39.583Z,40.00
2018-07-04T02:22:40.327Z,44.00
2018-07-04T02:23:39.520Z,48.00
2018-07-04T02:24:39.497Z,52.00
2018-07-04T02:25:39.466Z,60.00
2018-07-04T02:26:40.941Z,68.00
2018-07-04T02:27:39.327Z,72.00
2018-07-04T02:28:39.715Z,76.00
2018-07-04T02:29:41.477Z,84.00
2018-07-04T02:30:39.963Z,92.00
2018-07-04T02:31:39.478Z,104.00
2018-07-04T02:32:39.197Z,112.00
2018-07-04T02:33:39.233Z,120.00
2018-07-04T02:34:39.694Z,132.00
2018-07-04T02:35:39.180Z,144.00
2018-07-04T02:36:42.277Z,156.00
2018-07-04T02:37:40.441Z,168.00
2018-07-04T02:38:39.035Z,180.00
2018-07-04T02:39:43.909Z,192.00
2018-07-04T02:40:39.931Z,208.00
2018-07-04T02:41:39.035Z,224.00
2018-07-04T02:42:40.900Z,236.00
2018-07-04T02:43:40.496Z,256.00
2018-07-04T02:44:39.567Z,272.00
2018-07-04T02:45:38.810Z,288.00
2018-07-04T02:46:38.891Z,308.00
2018-07-04T02:47:38.823Z,328.00
2018-07-04T02:48:38.679Z,352.00
2018-07-04T02:49:38.721Z,368.00
2018-07-04T02:50:38.728Z,392.00
2018-07-04T02:51:39.482Z,416.00
2018-07-04T02:52:38.656Z,440.00
2018-07-04T02:53:38.772Z,464.00
2018-07-04T02:54:38.570Z,492.00
2018-07-04T02:55:39.451Z,516.00
2018-07-04T02:56:39.466Z,544.00
2018-07-04T02:57:38.505Z,572.00
2018-07-04T02:58:38.529Z,600.00
2018-07-04T02:59:38.501Z,624.00
2018-07-04T03:00:39.433Z,652.00
2018-07-04T03:01:38.419Z,680.00
2018-07-04T03:02:44.966Z,712.00
2018-07-04T03:03:38.390Z,744.00
2018-07-04T03:04:38.983Z,772.00
2018-07-04T03:05:38.345Z,804.00
2018-07-04T03:06:40.180Z,836.00
2018-07-04T03:07:40.956Z,868.00
2018-07-04T03:08:38.786Z,904.00
2018-07-04T03:09:38.759Z,932.00
2018-07-04T03:10:38.265Z,964.00
2018-07-04T03:11:38.109Z,1000.00
2018-07-04T03:12:38.987Z,1032.00
2018-07-04T03:13:38.120Z,1064.00
2018-07-04T03:14:41.879Z,1096.00
2018-07-04T03:15:38.991Z,1128.00
2018-07-04T03:16:38.117Z,1160.00
2018-07-04T03:17:38.214Z,1192.00
2018-07-04T03:18:38.472Z,1228.00
2018-07-04T03:19:38.548Z,1260.00
2018-07-04T03:20:37.818Z,1292.00
2018-07-04T03:21:38.505Z,1324.00
2018-07-04T03:22:39.424Z,1356.00
2018-07-04T03:23:37.816Z,1388.00
2018-07-04T03:24:37.884Z,1424.00
2018-07-04T03:25:38.404Z,1456.00
2018-07-04T03:26:37.802Z,1488.00
2018-07-04T03:27:37.772Z,1524.00
2018-07-04T03:28:38.427Z,1552.00
2018-07-04T03:29:37.609Z,1584.00
2018-07-04T03:30:37.674Z,1620.00
2018-07-04T03:31:39.497Z,1652.00
2018-07-04T03:32:38.111Z,1680.00
2018-07-04T03:33:37.542Z,1716.00
2018-07-04T03:34:40.985Z,1740.00
2018-07-04T03:35:37.417Z,1772.00
2018-07-04T03:36:40.940Z,1808.00
2018-07-04T03:37:37.478Z,1832.00
2018-07-04T03:38:37.446Z,1864.00
2018-07-04T03:39:39.073Z,1900.00
2018-07-04T03:40:37.368Z,1928.00
2018-07-04T03:41:38.957Z,1956.00
2018-07-04T03:42:37.843Z,1988.00
2018-07-04T03:43:37.327Z,2020.00
2018-07-04T03:44:37.248Z,2052.00
2018-07-04T03:45:37.804Z,2084.00
2018-07-04T03:46:37.746Z,2116.00
2018-07-04T03:47:37.961Z,2144.00
2018-07-04T03:48:41.996Z,2176.00
2018-07-04T03:49:40.925Z,2232.00
2018-07-04T03:50:38.995Z,2316.00
2018-07-04T03:51:37.430Z,2412.00
2018-07-04T03:52:37.043Z,2516.00
2018-07-04T03:53:37.046Z,2604.00
2018-07-04T03:54:36.934Z,2992.00
2018-07-04T03:55:38.141Z,3004.00
2018-07-04T03:56:36.870Z,2768.00
2018-07-04T03:57:36.837Z,2596.00
2018-07-04T03:58:40.334Z,2512.00
2018-07-04T03:59:36.901Z,2656.00
2018-07-04T04:00:37.385Z,2844.00
2018-07-04T04:01:36.754Z,2688.00
2018-07-04T04:02:37.442Z,2624.00
2018-07-04T04:03:36.664Z,2672.00
2018-07-04T04:04:37.502Z,2684.00
2018-07-04T04:05:38.236Z,2728.00
2018-07-04T04:06:36.616Z,2844.00
2018-07-04T04:07:38.434Z,3008.00
2018-07-04T04:08:37.399Z,3456.00
2018-07-04T04:09:36.580Z,5160.00
2018-07-04T04:10:37.425Z,6092.00
2018-07-04T04:11:39.388Z,6620.00
2018-07-04T04:12:37.472Z,7340.00
2018-07-04T04:13:36.471Z,7372.00
2018-07-04T04:14:36.480Z,7356.00
2018-07-04T04:15:36.417Z,7356.00
2018-07-04T04:16:36.305Z,7372.00
2018-07-04T04:17:36.518Z,7388.00
2018-07-04T04:18:36.351Z,7400.00
2018-07-04T04:19:37.405Z,7416.00
2018-07-04T04:20:36.921Z,7456.00
2018-07-04T04:21:40.914Z,7468.00
2018-07-04T04:22:38.754Z,7464.00
2018-07-04T04:23:46.766Z,7512.00
2018-07-04T04:24:35.766Z,7624.00
2018-07-04T04:25:35.727Z,7656.00
2018-07-04T04:26:35.704Z,7688.00
2018-07-04T04:27:35.682Z,7732.00
2018-07-04T04:28:35.655Z,7796.00
2018-07-04T04:29:35.637Z,7904.00
2018-07-04T04:30:35.605Z,8008.00
2018-07-04T04:31:35.596Z,8052.00
2018-07-04T04:32:35.565Z,8096.00
2018-07-04T04:33:35.547Z,8224.00
2018-07-04T04:34:35.534Z,8348.00
2018-07-04T04:35:35.498Z,8452.00
2018-07-04T04:36:35.482Z,8588.00
2018-07-04T04:37:35.456Z,8712.00
2018-07-04T04:38:35.449Z,8936.00
2018-07-04T04:39:35.421Z,9224.00
2018-07-04T04:40:35.404Z,9528.00
2018-07-04T04:41:35.374Z,9884.00
2018-07-04T04:42:35.356Z,10220.00
2018-07-04T04:43:35.334Z,10740.00
2018-07-04T04:44:35.318Z,11092.00
2018-07-04T04:45:35.291Z,11196.00
2018-07-04T04:46:35.284Z,11460.00
2018-07-04T04:47:35.258Z,11796.00
2018-07-04T04:48:35.245Z,11812.00
2018-07-04T04:49:35.223Z,11696.00
2018-07-04T04:50:35.194Z,11504.00
2018-07-04T04:51:35.181Z,11128.00
2018-07-04T04:52:35.161Z,10788.00
2018-07-04T04:53:35.149Z,10420.00
2018-07-04T04:54:35.124Z,10008.00
2018-07-04T04:55:35.105Z,9784.00
2018-07-04T04:56:35.079Z,9552.00
2018-07-04T04:57:35.072Z,9228.00
2018-07-04T04:58:35.053Z,8916.00
2018-07-04T04:59:35.040Z,8536.00
2018-07-04T05:00:35.014Z,8168.00
2018-07-04T05:01:43.938Z,7888.00
2018-07-04T05:03:28.645Z,7412.00
2018-07-04T05:04:28.615Z,7260.00
2018-07-04T05:06:21.450Z,6980.00
2018-07-04T05:07:21.402Z,6916.00
2018-07-04T05:09:14.747Z,6780.00
2018-07-04T05:10:14.699Z,6600.00
2018-07-04T05:12:07.839Z,6144.00
2018-07-04T05:13:07.821Z,5296.00
2018-07-04T05:15:01.065Z,4508.00
2018-07-04T05:16:00.917Z,4384.00
2018-07-04T05:17:54.260Z,4344.00
2018-07-04T05:18:54.234Z,4372.00
2018-07-04T05:20:47.380Z,4424.00
2018-07-04T05:21:48.159Z,4464.00
2018-07-04T05:23:40.484Z,4544.00
2018-07-04T05:24:40.441Z,4596.00
2018-07-04T05:26:33.794Z,4624.00
2018-07-04T05:27:33.735Z,4648.00
2018-07-04T05:29:27.055Z,4688.00
2018-07-04T05:30:27.037Z,4708.00
2018-07-04T05:32:20.383Z,4764.00
2018-07-04T05:33:20.336Z,4752.00
2018-07-04T05:35:13.234Z,4864.00
2018-07-04T05:36:13.137Z,4904.00
2018-07-04T05:38:06.562Z,4976.00
2018-07-04T05:39:06.222Z,4984.00
2018-07-04T05:40:59.443Z,5056.00
2018-07-04T05:41:59.313Z,5104.00
2018-07-04T05:43:52.436Z,5176.00
2018-07-04T05:44:52.405Z,5220.00
2018-07-04T05:46:46.341Z,6212.00
2018-07-04T05:47:46.296Z,9856.00
2018-07-04T05:49:40.664Z,5824.00
2018-07-04T05:50:40.638Z,5404.00
2018-07-04T05:52:33.992Z,5404.00
2018-07-04T05:53:33.941Z,5428.00
2018-07-04T05:55:27.059Z,5444.00
2018-07-04T05:56:27.013Z,5488.00
2018-07-04T05:58:20.365Z,5532.00
2018-07-04T05:59:20.312Z,5568.00
2018-07-04T06:01:13.178Z,5612.00
2018-07-04T06:02:13.120Z,5648.00
2018-07-04T06:04:06.260Z,5720.00
2018-07-04T06:05:06.218Z,5740.00
2018-07-04T06:06:59.032Z,5756.00
2018-07-04T06:07:59.002Z,5796.00
2018-07-04T06:09:52.633Z,5876.00
2018-07-04T06:10:52.601Z,5904.00
2018-07-04T06:11:52.562Z,5924.00
2018-07-04T06:12:52.542Z,5952.00
2018-07-04T06:13:52.523Z,5972.00
2018-07-04T06:14:52.494Z,6000.00
2018-07-04T06:15:52.481Z,6040.00
2018-07-04T06:16:52.444Z,6072.00
2018-07-04T06:17:52.427Z,6100.00
2018-07-04T06:18:52.405Z,6120.00
2018-07-04T06:19:52.380Z,6168.00
2018-07-04T06:20:52.355Z,6200.00
2018-07-04T06:21:52.338Z,6208.00
2018-07-04T06:22:52.324Z,6276.00
2018-07-04T06:23:52.287Z,6308.00
2018-07-04T06:24:52.282Z,6352.00
2018-07-04T06:25:52.243Z,6388.00
2018-07-04T06:26:52.216Z,6424.00
2018-07-04T06:27:52.206Z,6452.00
2018-07-04T06:28:52.182Z,6484.00
2018-07-04T06:29:52.153Z,6512.00
2018-07-04T06:30:52.133Z,6540.00
2018-07-04T06:31:52.107Z,6452.00
2018-07-04T06:32:52.085Z,6636.00
2018-07-04T06:33:52.062Z,6668.00
2018-07-04T06:34:52.047Z,6708.00
2018-07-04T06:35:52.055Z,6752.00
2018-07-04T06:36:51.995Z,6784.00
2018-07-04T06:37:51.977Z,6804.00
2018-07-04T06:38:51.953Z,6860.00
2018-07-04T06:39:51.937Z,6888.00
2018-07-04T06:40:51.920Z,6916.00
2018-07-04T06:41:51.892Z,6932.00
2018-07-04T06:42:51.862Z,6932.00
2018-07-04T06:43:51.845Z,6972.00
2018-07-04T06:44:51.816Z,7024.00
2018-07-04T06:45:51.796Z,7068.00
2018-07-04T06:46:51.783Z,7100.00
2018-07-04T06:47:51.748Z,7120.00
2018-07-04T06:48:51.782Z,7164.00
2018-07-04T06:49:51.710Z,7176.00
2018-07-04T06:50:51.694Z,7236.00
2018-07-04T06:51:51.666Z,7252.00
2018-07-04T06:52:51.641Z,7292.00
2018-07-04T06:53:51.636Z,7344.00
2018-07-04T06:54:51.593Z,7404.00
2018-07-04T06:55:51.592Z,7432.00
2018-07-04T06:56:51.557Z,7420.00
2018-07-04T06:57:51.543Z,7492.00
2018-07-04T06:58:51.523Z,7512.00
2018-07-04T06:59:51.492Z,7528.00
2018-07-04T07:00:51.475Z,7592.00
2018-07-04T07:01:51.497Z,7620.00
2018-07-04T07:02:51.441Z,7636.00
2018-07-04T07:03:51.405Z,7680.00
2018-07-04T07:04:51.381Z,7540.00
2018-07-04T07:05:51.368Z,7576.00
2018-07-04T07:06:51.343Z,7616.00
2018-07-04T07:07:51.316Z,7632.00
2018-07-04T07:08:51.302Z,7660.00
2018-07-04T07:09:51.284Z,7688.00
2018-07-04T07:10:51.255Z,7724.00
2018-07-04T07:11:51.299Z,7892.00
2018-07-04T07:12:51.215Z,7940.00
2018-07-04T07:13:51.923Z,7972.00
2018-07-04T07:14:51.170Z,8016.00
2018-07-04T07:15:52.915Z,8032.00
2018-07-04T07:16:52.932Z,8056.00
2018-07-04T07:17:51.109Z,8092.00
2018-07-04T07:18:51.089Z,8112.00
2018-07-04T07:19:51.068Z,8156.00
2018-07-04T07:20:51.060Z,8156.00
2018-07-04T07:21:51.029Z,8208.00
2018-07-04T07:22:51.017Z,8232.00
2018-07-04T07:23:50.985Z,8276.00
2018-07-04T07:24:51.934Z,8320.00
2018-07-04T07:25:50.945Z,8288.00
2018-07-04T07:26:50.925Z,8376.00
2018-07-04T07:27:50.904Z,8404.00
2018-07-04T07:28:50.884Z,8436.00
2018-07-04T07:29:50.870Z,8456.00
2018-07-04T07:30:50.852Z,8492.00
2018-07-04T07:31:50.837Z,8624.00
2018-07-04T07:32:50.801Z,8640.00
2018-07-04T07:33:50.788Z,8676.00
2018-07-04T07:34:50.758Z,8708.00
2018-07-04T07:35:50.780Z,8732.00
2018-07-04T07:36:50.726Z,8764.00
2018-07-04T07:37:50.721Z,8792.00
2018-07-04T07:38:50.677Z,8824.00
2018-07-04T07:39:50.685Z,8852.00
2018-07-04T07:40:50.640Z,8884.00
2018-07-04T07:41:50.670Z,8928.00
2018-07-04T07:42:50.600Z,8944.00
2018-07-04T07:43:50.583Z,8964.00
2018-07-04T07:44:50.562Z,9008.00
2018-07-04T07:45:50.554Z,9048.00
2018-07-04T07:46:50.536Z,9076.00
2018-07-04T07:47:50.500Z,9100.00
2018-07-04T07:48:50.542Z,9152.00
2018-07-04T07:49:50.461Z,9108.00
2018-07-04T07:50:50.452Z,9216.00
2018-07-04T07:51:50.424Z,9244.00
2018-07-04T07:52:50.416Z,9276.00
2018-07-04T07:53:50.385Z,9316.00
2018-07-04T07:54:50.372Z,9344.00
2018-07-04T07:55:50.349Z,9372.00
2018-07-04T07:56:50.328Z,9396.00
2018-07-04T07:57:50.300Z,9432.00
2018-07-04T07:58:50.304Z,9464.00
2018-07-04T07:59:50.313Z,9384.00
2018-07-04T08:00:50.249Z,9528.00
2018-07-04T08:01:50.260Z,9556.00
2018-07-04T08:02:50.210Z,9584.00
2018-07-04T08:03:50.187Z,9604.00
2018-07-04T08:04:50.175Z,9640.00
2018-07-04T08:05:50.189Z,9664.00
2018-07-04T08:06:50.129Z,9692.00
2018-07-04T08:07:50.114Z,9700.00
2018-07-04T08:08:50.104Z,9732.00
2018-07-04T08:09:50.073Z,9784.00
2018-07-04T08:10:50.951Z,9804.00
2018-07-04T08:11:50.033Z,9832.00
2018-07-04T08:12:50.014Z,9852.00
2018-07-04T08:13:50.006Z,9892.00
2018-07-04T08:14:49.980Z,9924.00
2018-07-04T08:15:49.956Z,9932.00
2018-07-04T08:16:49.932Z,9948.00
2018-07-04T08:17:49.920Z,9980.00
2018-07-04T08:18:49.905Z,9940.00
2018-07-04T08:19:49.893Z,10012.00
2018-07-04T08:20:49.854Z,10064.00
2018-07-04T08:21:49.853Z,10104.00
2018-07-04T08:22:49.823Z,10124.00
2018-07-04T08:23:49.816Z,10020.00
2018-07-04T08:24:49.790Z,10196.00
2018-07-04T08:25:51.451Z,10196.00
2018-07-04T08:26:49.748Z,10216.00
2018-07-04T08:27:49.734Z,10248.00
2018-07-04T08:28:49.705Z,10308.00
2018-07-04T08:29:49.701Z,10332.00
2018-07-04T08:30:49.673Z,10368.00
2018-07-04T08:31:49.656Z,10404.00
2018-07-04T08:32:49.637Z,10388.00
2018-07-04T08:33:49.629Z,10420.00
2018-07-04T08:34:49.597Z,10452.00
2018-07-04T08:35:49.581Z,10524.00
2018-07-04T08:36:49.561Z,10488.00
2018-07-04T08:37:49.554Z,10552.00
2018-07-04T08:38:49.547Z,10556.00
2018-07-04T08:39:49.502Z,10604.00
2018-07-04T08:40:49.488Z,10596.00
2018-07-04T08:41:49.482Z,10676.00
2018-07-04T08:42:49.449Z,10660.00
2018-07-04T08:43:49.431Z,10696.00
2018-07-04T08:44:49.409Z,10704.00
2018-07-04T08:45:49.431Z,10740.00
2018-07-04T08:46:49.391Z,10708.00
2018-07-04T08:47:49.358Z,10732.00
2018-07-04T08:48:49.452Z,10740.00
2018-07-04T08:49:49.332Z,10856.00
2018-07-04T08:50:49.559Z,10888.00
2018-07-04T08:51:49.285Z,10876.00
2018-07-04T08:52:49.273Z,10268.00
2018-07-04T08:53:49.269Z,10964.00
2018-07-04T08:54:49.313Z,10972.00
2018-07-04T08:55:49.256Z,10976.00
2018-07-04T08:56:49.189Z,11016.00
2018-07-04T08:57:49.197Z,11028.00
2018-07-04T08:58:49.158Z,11088.00
2018-07-04T08:59:49.148Z,11124.00
2018-07-04T09:00:49.115Z,11152.00
2018-07-04T09:01:49.118Z,11164.00
2018-07-04T09:02:50.044Z,11148.00
2018-07-04T09:03:49.076Z,11184.00
2018-07-04T09:04:49.075Z,11236.00
2018-07-04T09:05:49.197Z,11228.00
2018-07-04T09:06:50.953Z,11232.00
2018-07-04T09:07:49.012Z,11256.00
2018-07-04T09:08:48.981Z,11292.00
2018-07-04T09:09:48.970Z,11316.00
2018-07-04T09:10:48.947Z,11352.00
2018-07-04T09:11:48.974Z,11724.00
2018-07-04T09:12:50.450Z,11296.00
2018-07-04T09:13:48.895Z,11356.00
2018-07-04T09:14:48.898Z,11412.00
2018-07-04T09:15:48.855Z,11412.00
2018-07-04T09:16:48.844Z,11416.00
2018-07-04T09:17:48.829Z,11456.00
2018-07-04T09:18:48.805Z,11396.00
2018-07-04T09:19:48.781Z,11508.00
2018-07-04T09:20:48.960Z,11516.00
2018-07-04T09:21:48.752Z,11528.00
2018-07-04T09:22:48.753Z,11556.00
2018-07-04T09:23:48.805Z,11564.00
2018-07-04T09:24:48.702Z,11544.00
2018-07-04T09:25:48.676Z,11580.00
2018-07-04T09:26:48.685Z,11620.00
2018-07-04T09:27:48.651Z,11624.00
2018-07-04T09:28:48.642Z,11640.00
2018-07-04T09:29:48.619Z,11676.00
2018-07-04T09:30:48.606Z,11684.00
2018-07-04T09:31:48.581Z,11720.00
2018-07-04T09:32:48.562Z,11740.00
2018-07-04T09:33:48.554Z,11700.00
2018-07-04T09:34:48.532Z,11752.00
2018-07-04T09:35:48.519Z,11776.00
2018-07-04T09:36:48.496Z,11732.00
2018-07-04T09:37:48.498Z,11764.00
2018-07-04T09:38:48.968Z,11744.00
2018-07-04T09:39:48.983Z,11804.00
2018-07-04T09:40:48.432Z,11828.00
2018-07-04T09:41:49.970Z,11852.00
2018-07-04T09:42:49.077Z,11812.00
2018-07-04T09:43:48.393Z,11880.00
2018-07-04T09:44:48.373Z,11872.00
2018-07-04T09:45:48.344Z,11904.00
2018-07-04T09:46:48.326Z,11892.00
2018-07-04T09:47:48.372Z,11936.00
2018-07-04T09:48:48.306Z,11956.00
2018-07-04T09:49:48.281Z,11980.00
2018-07-04T09:50:48.968Z,11780.00
2018-07-04T09:51:48.255Z,12000.00
2018-07-04T09:52:48.234Z,11980.00
2018-07-04T09:53:48.213Z,12016.00
2018-07-04T09:54:48.221Z,12000.00
2018-07-04T09:55:48.192Z,12036.00
2018-07-04T09:56:48.178Z,11888.00
2018-07-04T09:57:48.136Z,11888.00
2018-07-04T09:58:48.195Z,11860.00
2018-07-04T09:59:48.971Z,11912.00
2018-07-04T10:00:48.096Z,11908.00
2018-07-04T10:01:48.073Z,12032.00
2018-07-04T10:02:48.076Z,12116.00
2018-07-04T10:03:48.050Z,12128.00
2018-07-04T10:04:48.031Z,12148.00
2018-07-04T10:05:48.019Z,12136.00
2018-07-04T10:06:47.994Z,12152.00
2018-07-04T10:07:47.983Z,12156.00
2018-07-04T10:08:47.957Z,12176.00
2018-07-04T10:09:47.945Z,12200.00
2018-07-04T10:10:47.934Z,12200.00
2018-07-04T10:11:47.913Z,12208.00
2018-07-04T10:12:47.891Z,12188.00
2018-07-04T10:13:47.893Z,12216.00
2018-07-04T10:14:47.875Z,12236.00
2018-07-04T10:15:47.849Z,12252.00
2018-07-04T10:16:47.828Z,12064.00
2018-07-04T10:17:47.816Z,12280.00
2018-07-04T10:18:47.798Z,12272.00
2018-07-04T10:19:47.786Z,12196.00
2018-07-04T10:20:47.767Z,12272.00
2018-07-04T10:21:47.753Z,12284.00
2018-07-04T10:22:47.746Z,12280.00
2018-07-04T10:23:47.711Z,12328.00
2018-07-04T10:24:47.699Z,12300.00
2018-07-04T10:25:47.680Z,12276.00
2018-07-04T10:26:47.676Z,12312.00
2018-07-04T10:27:47.647Z,12296.00
2018-07-04T10:28:48.476Z,12324.00
2018-07-04T10:29:47.618Z,12348.00
2018-07-04T10:30:47.607Z,12300.00
2018-07-04T10:31:47.584Z,12332.00
2018-07-04T10:32:47.566Z,12340.00
2018-07-04T10:33:47.559Z,12320.00
2018-07-04T10:34:47.538Z,12332.00
2018-07-04T10:35:47.514Z,12440.00
2018-07-04T10:36:47.500Z,12456.00
2018-07-04T10:37:47.483Z,12048.00
2018-07-04T10:38:47.461Z,13012.00
2018-07-04T10:39:47.458Z,12896.00
2018-07-04T10:40:47.437Z,12876.00
2018-07-04T10:41:47.419Z,12840.00
2018-07-04T10:42:47.400Z,12844.00
2018-07-04T10:43:47.381Z,12828.00
2018-07-04T10:44:47.410Z,12820.00
2018-07-04T10:45:47.350Z,12852.00
2018-07-04T10:46:47.338Z,12784.00
2018-07-04T10:47:47.309Z,12804.00
2018-07-04T10:48:47.301Z,12792.00
2018-07-04T10:49:47.288Z,12740.00
2018-07-04T10:50:47.271Z,12788.00
2018-07-04T10:51:47.250Z,12816.00
2018-07-04T10:52:47.242Z,12748.00
2018-07-04T10:53:47.220Z,12720.00
2018-07-04T10:54:47.205Z,12744.00
2018-07-04T10:55:47.211Z,12852.00
2018-07-04T10:56:47.188Z,12192.00
2018-07-04T10:57:47.158Z,12188.00
2018-07-04T10:58:47.151Z,12196.00
2018-07-04T10:59:48.013Z,12140.00
2018-07-04T11:00:47.106Z,12168.00
2018-07-04T11:01:47.102Z,11940.00
2018-07-04T11:02:47.078Z,12124.00
2018-07-04T11:03:47.073Z,12080.00
2018-07-04T11:04:47.048Z,12080.00
2018-07-04T11:05:47.035Z,12076.00
2018-07-04T11:06:48.006Z,12052.00
2018-07-04T11:07:47.996Z,12048.00
2018-07-04T11:08:47.011Z,12052.00
2018-07-04T11:09:46.986Z,12056.00
2018-07-04T11:10:46.948Z,12032.00
2018-07-04T11:11:46.933Z,12012.00
2018-07-04T11:12:47.494Z,12012.00
2018-07-04T11:13:46.897Z,11676.00
2018-07-04T11:14:46.901Z,12008.00
2018-07-04T11:15:46.876Z,11984.00
2018-07-04T11:16:46.893Z,11992.00
2018-07-04T11:17:46.844Z,11996.00
2018-07-04T11:18:46.843Z,12008.00
2018-07-04T11:19:46.800Z,11772.00
2018-07-04T11:20:46.796Z,12020.00
2018-07-04T11:21:46.778Z,12016.00
2018-07-04T11:22:46.766Z,11996.00
2018-07-04T11:23:46.755Z,12016.00
2018-07-04T11:24:46.725Z,12004.00
2018-07-04T11:25:46.717Z,12012.00
2018-07-04T11:26:46.694Z,12008.00
2018-07-04T11:27:46.678Z,12012.00
2018-07-04T11:28:46.664Z,11992.00
2018-07-04T11:29:46.649Z,11996.00
2018-07-04T11:30:46.630Z,11996.00
2018-07-04T11:31:46.612Z,12000.00
2018-07-04T11:32:46.622Z,12000.00
2018-07-04T11:33:46.583Z,12004.00
2018-07-04T11:34:46.570Z,11988.00
2018-07-04T11:35:46.546Z,11960.00
2018-07-04T11:36:46.542Z,12008.00
2018-07-04T11:37:46.520Z,11996.00
2018-07-04T11:38:46.511Z,12008.00
2018-07-04T11:39:46.484Z,11992.00
2018-07-04T11:40:46.987Z,11976.00
2018-07-04T11:41:46.464Z,11988.00
2018-07-04T11:42:46.440Z,11980.00
2018-07-04T11:43:46.429Z,11996.00
2018-07-04T11:44:46.412Z,12008.00
2018-07-04T11:45:46.404Z,12148.00
2018-07-04T11:46:46.376Z,12020.00
2018-07-04T11:47:46.370Z,12012.00
2018-07-04T11:48:46.349Z,11996.00
2018-07-04T11:49:46.331Z,11992.00
2018-07-04T11:50:46.322Z,11948.00
2018-07-04T11:51:46.299Z,12004.00
2018-07-04T11:52:46.289Z,11984.00
2018-07-04T11:53:46.266Z,11980.00
2018-07-04T11:54:46.270Z,11996.00
2018-07-04T11:55:46.230Z,11964.00
2018-07-04T11:56:46.221Z,11972.00
2018-07-04T11:57:46.212Z,11972.00
2018-07-04T11:58:46.193Z,11952.00
2018-07-04T11:59:46.190Z,11968.00
2018-07-04T12:00:46.166Z,11980.00
2018-07-04T12:01:46.213Z,11892.00
2018-07-04T12:02:46.127Z,11956.00
2018-07-04T12:03:46.121Z,11940.00
2018-07-04T12:04:46.090Z,11920.00
2018-07-04T12:05:46.092Z,11928.00
2018-07-04T12:06:46.063Z,11924.00
2018-07-04T12:07:46.060Z,11892.00
2018-07-04T12:08:46.045Z,11920.00
2018-07-04T12:09:46.016Z,11916.00
2018-07-04T12:10:46.009Z,11916.00
2018-07-04T12:11:45.996Z,11892.00
2018-07-04T12:12:45.984Z,11896.00
2018-07-04T12:13:45.975Z,11912.00
2018-07-04T12:14:45.938Z,11908.00
2018-07-04T12:15:46.506Z,11896.00
2018-07-04T12:16:45.904Z,11888.00
2018-07-04T12:17:45.909Z,11776.00
2018-07-04T12:18:45.873Z,11868.00
2018-07-04T12:19:46.516Z,11864.00
2018-07-04T12:20:45.857Z,11760.00
2018-07-04T12:21:45.842Z,11836.00
2018-07-04T12:22:45.813Z,11804.00
2018-07-04T12:23:45.798Z,11760.00
2018-07-04T12:24:45.785Z,11792.00
2018-07-04T12:25:45.770Z,11764.00
2018-07-04T12:26:45.853Z,11748.00
2018-07-04T12:27:46.879Z,11824.00
2018-07-04T12:28:47.771Z,11744.00
2018-07-04T12:29:46.159Z,11792.00
2018-07-04T12:30:48.490Z,11756.00
2018-07-04T12:31:46.089Z,11664.00
2018-07-04T12:32:45.811Z,11668.00
2018-07-04T12:33:45.996Z,11728.00
2018-07-04T12:34:46.303Z,11772.00